Home   Weather   Iran   Tehran   Past weeks
Flag for Iran

Past Weather in Tehran, Iran — Yesterday and Last 2 Weeks

Currently: 106 °F. Sunny. (Weather station: Tehran-Mehrabad, Iran). See more current weather

Past Weather in Tehran — Graph

°F

Tehran Temperature Yesterday

Maximum temperature yesterday: 106 °F (at 5:00 pm)
Minimum temperature yesterday: 81 °F (at 5:30 am)
Average temperature yesterday: 95 °F

High & Low Weather Summary for the Past Weeks

 TemperatureHumidityPressure
High106 °F (Jun 28, 5:00 pm)44% (Jun 17, 2:30 am)30.04 "Hg (Jun 17, 2:30 am)
Low72 °F (Jun 17, 2:30 am)4% (Jun 14, 7:30 pm)29.53 "Hg (Jun 22, 4:30 pm)
Average89 °F14%29.82 "Hg
* Reported Jun 14 4:30 pm — Jun 29 4:30 pm, Tehran. Weather by CustomWeather, © 2022

Note: Actual official high and low records may vary slightly from our data, if they occured in-between our weather recording intervals... More about our weather records

Tehran Weather History for the Previous 24 Hours

Scroll right to see more
 ConditionsComfort  
Time TempWeatherWind HumidityBarometerVisibility
4:30 pm
Wed, Jun 29
104 °FSunny.7 mph6%29.71 "Hg10 mi
3:30 pm104 °FSunny.9 mph6%29.74 "Hg10 mi
3:00 pm102 °FSunny.14 mph7%29.74 "Hg10 mi
2:30 pm102 °FSunny.9 mph7%29.77 "Hg10 mi
2:00 pm102 °FSunny.5 mph7%29.77 "Hg10 mi
1:30 pm100 °FSunny.9 mph8%29.80 "Hg10 mi
1:00 pm100 °FSunny.7 mph8%29.80 "Hg10 mi
12:30 pm100 °FSunny.9 mph8%29.80 "Hg10 mi
12:00 pm99 °FSunny.5 mph9%29.80 "Hg10 mi
11:30 am97 °FSunny.7 mph9%29.80 "Hg10 mi
11:00 am95 °FSunny.No wind10%29.83 "Hg10 mi
10:30 am97 °FSunny.12 mph9%29.83 "Hg10 mi
9:30 am95 °FPassing clouds.5 mph9%29.80 "Hg5 mi
9:00 am93 °FPassing clouds.5 mph11%29.80 "Hg5 mi
8:30 am93 °FPassing clouds.No wind11%29.80 "HgN/A
8:00 am88 °FSunny.5 mph13%29.80 "Hg10 mi
7:30 am86 °FSunny.5 mph13%29.80 "Hg10 mi
7:00 am84 °FSunny.7 mph13%29.77 "Hg10 mi
6:30 am82 °FSunny.5 mph13%29.77 "Hg10 mi
6:00 am84 °FClear.5 mph12%29.77 "Hg10 mi
5:30 am86 °FClear.7 mph10%29.77 "Hg10 mi
4:00 am84 °FClear.7 mph16%29.74 "Hg10 mi
3:30 am84 °FClear.5 mph16%29.77 "Hg10 mi
2:30 am86 °FClear.9 mph13%29.74 "Hg10 mi
1:30 am88 °FClear.No wind11%29.74 "Hg10 mi
12:30 am91 °FClear.No wind11%29.74 "Hg10 mi
12:00 am93 °FClear.7 mph8%29.74 "Hg10 mi
11:30 pm
Tue, Jun 28
95 °FClear.9 mph8%29.74 "Hg10 mi
11:00 pm93 °FClear.7 mph11%29.74 "Hg10 mi
10:30 pm93 °FClear.7 mph15%29.74 "Hg10 mi
9:30 pm93 °FClear.5 mph15%29.74 "Hg10 mi
9:00 pm97 °FClear.5 mph10%29.71 "Hg10 mi
8:30 pm102 °FSunny.7 mph7%29.71 "Hg10 mi
7:30 pm104 °FClear.7 mph5%29.71 "Hg5 mi
7:00 pm104 °FClear.7 mph5%29.71 "Hg5 mi
6:30 pm106 °FClear.7 mph5%29.71 "Hg5 mi
6:00 pm106 °FClear.7 mph5%29.71 "Hg5 mi
Weather by CustomWeather, © 2022

See weather overview